Time;durP1;ratioP1;P1;durP2;ratioP2;P2;SDS_P1;SDS_P2;PMS_P1;PMS_P2;Temp;Humidity;BMP_temperature;BMP_pressure;BME280_temperature;BME280_humidity;BME280_pressure;Samples;Min_cycle;Max_cycle;Signal;HPM_P1;HPM_P2
2024/04/13 00:01:45;;;;;;;4.20;2.15;;;;;;;;;;5383861;26;19996;-59
2024/04/13 00:04:11;;;;;;;3.03;2.15;;;;;;;;;;5383938;26;20069;-59
2024/04/13 00:06:37;;;;;;;3.72;2.35;;;;;;;;;;5383366;26;20003;-59
2024/04/13 00:09:04;;;;;;;5.15;2.13;;;;;;;;;;5383858;26;20327;-59
2024/04/13 00:11:30;;;;;;;4.90;2.63;;;;;;;;;;5384166;26;20009;-59
2024/04/13 00:13:56;;;;;;;3.85;2.78;;;;;;;;;;5383500;26;20069;-59
2024/04/13 00:16:22;;;;;;;4.13;2.45;;;;;;;;;;5383405;26;20076;-59
2024/04/13 00:18:48;;;;;;;4.05;2.30;;;;;;;;;;5383813;26;20008;-60
2024/04/13 00:21:14;;;;;;;2.85;2.10;;;;;;;;;;5383773;26;20307;-59
2024/04/13 00:23:42;;;;;;;3.80;2.70;;;;;;;;;;5383593;26;20314;-59
2024/04/13 00:26:08;;;;;;;5.30;2.85;;;;;;;;;;5383547;26;19996;-59
2024/04/13 00:28:34;;;;;;;4.75;2.65;;;;;;;;;;5383635;26;20318;-60
2024/04/13 00:31:02;;;;;;;4.32;2.65;;;;;;;;;;5384222;26;20445;-59
2024/04/13 00:33:28;;;;;;;5.40;2.38;;;;;;;;;;5383252;26;19993;-59
2024/04/13 00:35:58;;;;;;;4.95;2.92;;;;;;;;;;5383454;26;20440;-59
2024/04/13 00:38:24;;;;;;;4.15;3.20;;;;;;;;;;5383563;26;19996;-59
2024/04/13 00:40:50;;;;;;;4.40;2.83;;;;;;;;;;5383209;26;20389;-59
2024/04/13 00:43:16;;;;;;;5.22;3.63;;;;;;;;;;5383123;26;19996;-59
2024/04/13 00:45:42;;;;;;;7.13;3.92;;;;;;;;;;5383045;26;19996;-59
2024/04/13 00:48:14;;;;;;;5.25;3.13;;;;;;;;;;5382684;26;20066;-59
2024/04/13 00:50:43;;;;;;;6.25;3.40;;;;;;;;;;5383625;26;20461;-59
2024/04/13 00:53:11;;;;;;;5.10;3.78;;;;;;;;;;5383502;26;20024;-59
2024/04/13 00:55:38;;;;;;;5.43;3.30;;;;;;;;;;5383005;26;20003;-59
2024/04/13 00:58:05;;;;;;;6.13;3.97;;;;;;;;;;5382920;26;20070;-60
2024/04/13 01:00:31;;;;;;;6.78;4.10;;;;;;;;;;5382916;26;20008;-59
2024/04/13 01:03:00;;;;;;;4.18;3.08;;;;;;;;;;5382754;26;20062;-59
2024/04/13 01:05:26;;;;;;;5.25;3.85;;;;;;;;;;5382807;26;20431;-59
2024/04/13 01:07:52;;;;;;;4.50;4.07;;;;;;;;;;5382186;26;20024;-60
2024/04/13 01:10:21;;;;;;;4.13;3.30;;;;;;;;;;5382903;26;20011;-60
2024/04/13 01:12:47;;;;;;;4.25;3.70;;;;;;;;;;5382462;26;19996;-60
2024/04/13 01:15:13;;;;;;;6.53;3.85;;;;;;;;;;5381006;26;20040;-59
2024/04/13 01:17:39;;;;;;;5.05;3.58;;;;;;;;;;5382383;26;20010;-59
2024/04/13 01:20:07;;;;;;;5.22;3.25;;;;;;;;;;5382351;26;20000;-59
2024/04/13 01:22:36;;;;;;;3.67;3.25;;;;;;;;;;5382269;26;19992;-60
2024/04/13 01:25:02;;;;;;;4.32;3.75;;;;;;;;;;5382242;26;20011;-59
2024/04/13 01:27:29;;;;;;;4.93;3.42;;;;;;;;;;5382050;26;20004;-60
2024/04/13 01:29:56;;;;;;;4.85;3.25;;;;;;;;;;5380804;26;20394;-59
2024/04/13 01:32:23;;;;;;;4.70;3.08;;;;;;;;;;5382237;26;20000;-59
2024/04/13 01:34:49;;;;;;;4.07;3.13;;;;;;;;;;5382144;26;19996;-60
2024/04/13 01:37:15;;;;;;;3.53;2.75;;;;;;;;;;5382458;26;20004;-60
2024/04/13 01:39:41;;;;;;;3.45;2.90;;;;;;;;;;5382090;26;20438;-60
2024/04/13 01:42:07;;;;;;;4.53;3.33;;;;;;;;;;5382002;26;20007;-60
2024/04/13 01:44:33;;;;;;;4.60;3.17;;;;;;;;;;5382060;26;19996;-60
2024/04/13 01:47:01;;;;;;;4.50;3.55;;;;;;;;;;5381871;26;20069;-59
2024/04/13 01:49:27;;;;;;;3.53;3.10;;;;;;;;;;5381983;26;20028;-60
2024/04/13 01:51:53;;;;;;;5.88;3.72;;;;;;;;;;5382165;26;20073;-59
2024/04/13 01:54:18;;;;;;;7.80;5.03;;;;;;;;;;5381985;26;19997;-59
2024/04/13 01:56:44;;;;;;;5.70;4.70;;;;;;;;;;5382024;26;20008;-59
2024/04/13 01:59:10;;;;;;;7.75;5.53;;;;;;;;;;5386175;26;20070;-59
2024/04/13 02:01:36;;;;;;;5.93;5.32;;;;;;;;;;5385117;26;20011;-59
2024/04/13 02:04:02;;;;;;;5.20;4.70;;;;;;;;;;5385109;26;20097;-59
2024/04/13 02:06:29;;;;;;;7.78;5.07;;;;;;;;;;5385255;26;20008;-59
2024/04/13 02:08:55;;;;;;;6.43;4.78;;;;;;;;;;5385343;26;20008;-59
2024/04/13 02:11:22;;;;;;;5.43;4.93;;;;;;;;;;5385400;26;20416;-59
2024/04/13 02:13:47;;;;;;;4.78;4.15;;;;;;;;;;5385244;26;20011;-59
2024/04/13 02:16:13;;;;;;;7.20;5.78;;;;;;;;;;5385504;26;19996;-59
2024/04/13 02:18:39;;;;;;;5.75;4.43;;;;;;;;;;5385654;26;20020;-59
2024/04/13 02:21:05;;;;;;;5.85;4.88;;;;;;;;;;5385489;26;20065;-59
2024/04/13 02:23:31;;;;;;;6.85;4.65;;;;;;;;;;5385247;26;20000;-59
2024/04/13 02:25:59;;;;;;;5.70;5.07;;;;;;;;;;5385117;26;20007;-59
2024/04/13 02:28:25;;;;;;;7.00;5.38;;;;;;;;;;5383672;26;20310;-59
2024/04/13 02:30:51;;;;;;;6.35;4.75;;;;;;;;;;5385335;26;19992;-59
2024/04/13 02:33:17;;;;;;;6.65;4.80;;;;;;;;;;5385006;26;20000;-59
2024/04/13 02:35:44;;;;;;;5.40;4.90;;;;;;;;;;5385332;26;19996;-59
2024/04/13 02:38:10;;;;;;;5.57;4.72;;;;;;;;;;5384975;26;20007;-59
2024/04/13 02:40:37;;;;;;;5.45;4.90;;;;;;;;;;5385265;26;19996;-59
2024/04/13 02:43:03;;;;;;;6.88;4.90;;;;;;;;;;5384843;26;19996;-59
2024/04/13 02:45:29;;;;;;;9.88;6.57;;;;;;;;;;5384830;26;20007;-59
2024/04/13 02:47:55;;;;;;;5.63;5.13;;;;;;;;;;5384777;26;20007;-59
2024/04/13 02:50:21;;;;;;;6.00;4.85;;;;;;;;;;5384878;26;20434;-59
2024/04/13 02:52:47;;;;;;;5.63;5.03;;;;;;;;;;5384727;26;20000;-59
2024/04/13 02:55:14;;;;;;;6.65;5.10;;;;;;;;;;5384765;26;20008;-59
2024/04/13 02:57:40;;;;;;;7.25;5.30;;;;;;;;;;5384679;26;19992;-59
2024/04/13 03:00:07;;;;;;;6.22;5.55;;;;;;;;;;5385037;26;20000;-59
2024/04/13 03:02:33;;;;;;;7.63;6.07;;;;;;;;;;5384726;26;19996;-59
2024/04/13 03:05:03;;;;;;;6.35;4.93;;;;;;;;;;5384357;26;20007;-59
2024/04/13 03:07:29;;;;;;;7.33;5.60;;;;;;;;;;5384493;26;20003;-59
2024/04/13 03:09:55;;;;;;;6.10;5.10;;;;;;;;;;5383216;26;20521;-59
2024/04/13 03:12:21;;;;;;;6.15;5.20;;;;;;;;;;5384516;26;20361;-59
2024/04/13 03:14:46;;;;;;;6.60;5.28;;;;;;;;;;5384144;26;20029;-59
2024/04/13 03:17:12;;;;;;;6.78;5.15;;;;;;;;;;5384119;26;20003;-59
2024/04/13 03:19:39;;;;;;;8.52;5.20;;;;;;;;;;5384560;26;19996;-59
2024/04/13 03:22:05;;;;;;;8.45;5.63;;;;;;;;;;5384875;26;19992;-59
2024/04/13 03:24:33;;;;;;;11.57;5.75;;;;;;;;;;5384067;26;19996;-59
2024/04/13 03:26:59;;;;;;;7.32;6.07;;;;;;;;;;5384162;26;20062;-59
2024/04/13 03:29:25;;;;;;;8.38;6.43;;;;;;;;;;5383991;26;20004;-59
2024/04/13 03:31:51;;;;;;;7.38;5.05;;;;;;;;;;5384142;26;20458;-59
2024/04/13 03:34:17;;;;;;;6.82;5.88;;;;;;;;;;5383920;26;20067;-59
2024/04/13 03:36:43;;;;;;;5.43;4.93;;;;;;;;;;5383836;26;20068;-59
2024/04/13 03:39:09;;;;;;;6.78;5.75;;;;;;;;;;5383815;26;20000;-59
2024/04/13 03:41:35;;;;;;;7.05;5.57;;;;;;;;;;5383842;26;19996;-59
2024/04/13 03:44:01;;;;;;;10.88;5.93;;;;;;;;;;5383971;26;20042;-59
2024/04/13 03:46:27;;;;;;;8.68;5.05;;;;;;;;;;5383420;26;20016;-59
2024/04/13 03:48:53;;;;;;;8.00;5.60;;;;;;;;;;5383960;26;20327;-59
2024/04/13 03:51:19;;;;;;;10.07;5.90;;;;;;;;;;5383760;26;19996;-59
2024/04/13 03:53:45;;;;;;;6.20;5.60;;;;;;;;;;5383508;26;19999;-59
2024/04/13 03:56:11;;;;;;;9.50;5.45;;;;;;;;;;5383635;26;20000;-59
2024/04/13 03:58:37;;;;;;;6.70;6.10;;;;;;;;;;5383519;26;20007;-59
2024/04/13 04:01:03;;;;;;;8.52;5.55;;;;;;;;;;5383506;26;20441;-59
2024/04/13 04:03:29;;;;;;;5.82;5.03;;;;;;;;;;5383533;26;20000;-59
2024/04/13 04:05:55;;;;;;;5.13;4.63;;;;;;;;;;5383202;26;20011;-59
2024/04/13 04:08:21;;;;;;;7.82;5.57;;;;;;;;;;5383607;26;19996;-59
2024/04/13 04:10:47;;;;;;;6.63;5.05;;;;;;;;;;5383719;26;20008;-59
2024/04/13 04:13:14;;;;;;;7.05;5.03;;;;;;;;;;5384236;26;20006;-59
2024/04/13 04:15:41;;;;;;;11.55;5.72;;;;;;;;;;5383481;26;19996;-59
2024/04/13 04:18:07;;;;;;;6.43;5.47;;;;;;;;;;5383499;26;19996;-59
2024/04/13 04:20:33;;;;;;;6.25;5.32;;;;;;;;;;5383336;26;20010;-59
2024/04/13 04:22:59;;;;;;;6.85;4.88;;;;;;;;;;5383426;26;19992;-59
2024/04/13 04:25:25;;;;;;;5.68;4.93;;;;;;;;;;5383417;26;20008;-59
2024/04/13 04:27:52;;;;;;;5.85;4.72;;;;;;;;;;5383284;26;20004;-59
2024/04/13 04:30:18;;;;;;;6.20;4.53;;;;;;;;;;5383560;26;20504;-59
2024/04/13 04:32:44;;;;;;;5.97;5.00;;;;;;;;;;5383373;26;20406;-59
2024/04/13 04:35:10;;;;;;;6.60;5.85;;;;;;;;;;5383326;26;20032;-60
2024/04/13 04:37:36;;;;;;;5.28;4.78;;;;;;;;;;5383462;26;20007;-60
2024/04/13 04:40:03;;;;;;;5.93;4.63;;;;;;;;;;5383501;26;20000;-60
2024/04/13 04:42:29;;;;;;;6.30;5.65;;;;;;;;;;5383497;26;20008;-59
2024/04/13 04:44:55;;;;;;;6.57;5.28;;;;;;;;;;5383102;26;20507;-59
2024/04/13 04:47:21;;;;;;;6.68;5.30;;;;;;;;;;5383279;26;20302;-59
2024/04/13 04:49:47;;;;;;;8.98;5.50;;;;;;;;;;5383394;26;20000;-59
2024/04/13 04:52:14;;;;;;;10.40;5.30;;;;;;;;;;5382999;26;20008;-59
2024/04/13 04:54:39;;;;;;;8.40;5.47;;;;;;;;;;5383233;26;20397;-59
2024/04/13 04:57:06;;;;;;;5.82;5.00;;;;;;;;;;5383244;26;20007;-59
2024/04/13 04:59:31;;;;;;;9.02;5.30;;;;;;;;;;5383301;26;20008;-59
2024/04/13 05:01:57;;;;;;;7.90;4.93;;;;;;;;;;5382982;26;20003;-58
2024/04/13 05:04:24;;;;;;;7.95;5.35;;;;;;;;;;5382787;26;19996;-59
2024/04/13 05:06:50;;;;;;;8.70;5.60;;;;;;;;;;5382845;26;19997;-59
2024/04/13 05:09:17;;;;;;;4.70;4.22;;;;;;;;;;5383029;26;19999;-59
2024/04/13 05:11:43;;;;;;;5.90;5.05;;;;;;;;;;5383154;26;20011;-59
2024/04/13 05:14:10;;;;;;;5.53;4.60;;;;;;;;;;5382807;26;19999;-59
2024/04/13 05:16:36;;;;;;;7.78;5.72;;;;;;;;;;5381642;26;19992;-59
2024/04/13 05:19:06;;;;;;;6.60;4.68;;;;;;;;;;5382845;26;20071;-59
2024/04/13 05:21:32;;;;;;;5.22;4.75;;;;;;;;;;5382773;26;19996;-59
2024/04/13 05:23:58;;;;;;;7.72;5.25;;;;;;;;;;5381274;26;19996;-58
2024/04/13 05:26:24;;;;;;;6.85;6.00;;;;;;;;;;5382714;26;20038;-59
2024/04/13 05:28:50;;;;;;;11.25;6.07;;;;;;;;;;5383234;26;20342;-59
2024/04/13 05:31:17;;;;;;;7.20;5.75;;;;;;;;;;5381948;26;20069;-59
2024/04/13 05:33:44;;;;;;;8.52;6.72;;;;;;;;;;5382302;26;20043;-59
2024/04/13 05:36:10;;;;;;;7.72;5.93;;;;;;;;;;5382513;26;20007;-59
2024/04/13 05:38:36;;;;;;;7.07;5.78;;;;;;;;;;5382857;26;19996;-59
2024/04/13 05:41:02;;;;;;;13.48;6.65;;;;;;;;;;5382241;26;20131;-59
2024/04/13 05:43:28;;;;;;;6.45;5.78;;;;;;;;;;5382265;26;20004;-59
2024/04/13 05:45:54;;;;;;;5.60;4.97;;;;;;;;;;5381623;26;20444;-59
2024/04/13 05:48:20;;;;;;;6.05;4.85;;;;;;;;;;5382007;26;20003;-57
2024/04/13 05:50:53;;;;;;;7.68;5.30;;;;;;;;;;5381520;26;19996;-57
2024/04/13 05:53:19;;;;;;;10.48;5.22;;;;;;;;;;5381865;26;19996;-57
2024/04/13 05:55:45;;;;;;;5.15;4.60;;;;;;;;;;5381150;26;20008;-57
2024/04/13 05:58:11;;;;;;;8.05;5.05;;;;;;;;;;5381213;26;20426;-58
2024/04/13 06:00:40;;;;;;;10.45;6.00;;;;;;;;;;5382430;26;20012;-60
2024/04/13 06:03:06;;;;;;;6.90;5.43;;;;;;;;;;5381745;26;19996;-59
2024/04/13 06:05:32;;;;;;;5.07;4.00;;;;;;;;;;5381934;26;20403;-59
2024/04/13 06:07:58;;;;;;;9.32;5.03;;;;;;;;;;5381846;26;20398;-58
2024/04/13 06:10:24;;;;;;;6.97;4.57;;;;;;;;;;5381885;26;20439;-58
2024/04/13 06:12:50;;;;;;;8.70;5.38;;;;;;;;;;5381910;26;19996;-59
2024/04/13 06:15:16;;;;;;;6.15;5.15;;;;;;;;;;5381588;26;20020;-59
2024/04/13 06:17:42;;;;;;;6.88;4.38;;;;;;;;;;5381839;26;20006;-59
2024/04/13 06:20:08;;;;;;;8.27;4.70;;;;;;;;;;5381611;26;20326;-58
2024/04/13 06:22:35;;;;;;;5.50;4.80;;;;;;;;;;5382180;26;19996;-59
2024/04/13 06:25:01;;;;;;;7.25;4.82;;;;;;;;;;5382239;26;20050;-59
2024/04/13 06:27:27;;;;;;;5.60;4.30;;;;;;;;;;5381288;26;20065;-59
2024/04/13 06:29:53;;;;;;;5.55;5.03;;;;;;;;;;5381925;26;20008;-59
2024/04/13 06:32:19;;;;;;;6.40;4.75;;;;;;;;;;5381367;26;20001;-59
2024/04/13 06:34:45;;;;;;;5.15;4.13;;;;;;;;;;5381586;26;20003;-59
2024/04/13 06:37:14;;;;;;;5.20;4.70;;;;;;;;;;5381292;26;20004;-59
2024/04/13 06:39:40;;;;;;;7.25;4.90;;;;;;;;;;5381654;26;20011;-59
2024/04/13 06:42:07;;;;;;;6.80;5.53;;;;;;;;;;5381536;26;20007;-59
2024/04/13 06:44:33;;;;;;;5.50;4.97;;;;;;;;;;5384176;26;20028;-59
2024/04/13 06:46:59;;;;;;;10.82;5.55;;;;;;;;;;5384638;26;20309;-59
2024/04/13 06:49:25;;;;;;;5.40;4.90;;;;;;;;;;5384925;26;20024;-59
2024/04/13 06:51:51;;;;;;;6.60;4.10;;;;;;;;;;5385061;26;20334;-59
2024/04/13 06:54:17;;;;;;;5.03;4.43;;;;;;;;;;5384778;26;20306;-59
2024/04/13 06:56:43;;;;;;;6.05;5.07;;;;;;;;;;5384793;26;20438;-59
2024/04/13 06:59:09;;;;;;;7.47;4.70;;;;;;;;;;5384523;26;20008;-58
2024/04/13 07:01:35;;;;;;;5.60;4.80;;;;;;;;;;5384759;26;20003;-58
2024/04/13 07:04:01;;;;;;;8.27;4.90;;;;;;;;;;5384313;26;20008;-59
2024/04/13 07:06:27;;;;;;;8.82;5.25;;;;;;;;;;5384252;26;20070;-59
2024/04/13 07:08:53;;;;;;;6.32;4.80;;;;;;;;;;5384558;26;20000;-58
2024/04/13 07:11:20;;;;;;;8.63;4.75;;;;;;;;;;5384634;26;20000;-58
2024/04/13 07:13:59;;;;;;;10.13;4.70;;;;;;;;;;5384450;26;20069;-59
2024/04/13 07:16:25;;;;;;;5.97;4.65;;;;;;;;;;5381732;26;19989;-58
2024/04/13 07:18:51;;;;;;;5.95;4.75;;;;;;;;;;5384471;26;19999;-59
2024/04/13 07:21:17;;;;;;;6.07;4.22;;;;;;;;;;5383789;26;19988;-58
2024/04/13 07:23:43;;;;;;;4.60;4.13;;;;;;;;;;5384429;26;20347;-57
2024/04/13 07:26:09;;;;;;;5.15;4.43;;;;;;;;;;5384425;26;20004;-59
2024/04/13 07:28:41;;;;;;;4.72;3.90;;;;;;;;;;5384261;26;20383;-58
2024/04/13 07:31:07;;;;;;;5.30;4.00;;;;;;;;;;5384844;26;20003;-58
2024/04/13 07:33:33;;;;;;;4.55;4.05;;;;;;;;;;5384108;26;19992;-57
2024/04/13 07:35:59;;;;;;;5.25;4.30;;;;;;;;;;5384275;26;19996;-59
2024/04/13 07:38:26;;;;;;;4.50;3.47;;;;;;;;;;5383542;26;20303;-57
2024/04/13 07:40:52;;;;;;;4.18;3.53;;;;;;;;;;5384234;26;19994;-58
2024/04/13 07:43:19;;;;;;;5.63;4.07;;;;;;;;;;5383680;26;20426;-57
2024/04/13 07:45:46;;;;;;;3.83;3.35;;;;;;;;;;5383575;26;20068;-57
2024/04/13 07:48:12;;;;;;;5.05;3.30;;;;;;;;;;5383784;26;19988;-58
2024/04/13 07:50:38;;;;;;;5.68;3.33;;;;;;;;;;5383788;26;20412;-57
2024/04/13 07:53:04;;;;;;;7.25;3.60;;;;;;;;;;5384028;26;20063;-57
2024/04/13 07:55:30;;;;;;;3.22;2.92;;;;;;;;;;5382961;26;20295;-57
2024/04/13 07:57:57;;;;;;;4.18;3.28;;;;;;;;;;5383319;26;20003;-57
2024/04/13 08:00:23;;;;;;;4.90;3.40;;;;;;;;;;5383753;26;20004;-58
2024/04/13 08:02:48;;;;;;;8.23;3.83;;;;;;;;;;5383367;26;20462;-57
2024/04/13 08:05:14;;;;;;;3.60;3.03;;;;;;;;;;5383685;26;20004;-58
2024/04/13 08:07:40;;;;;;;3.42;3.13;;;;;;;;;;5383471;26;20006;-56
2024/04/13 08:10:07;;;;;;;7.50;3.60;;;;;;;;;;5383981;26;20311;-58
2024/04/13 08:12:33;;;;;;;4.28;2.75;;;;;;;;;;5383636;26;20008;-57
2024/04/13 08:14:59;;;;;;;6.75;3.30;;;;;;;;;;5383720;26;20310;-58
2024/04/13 08:17:27;;;;;;;3.70;3.05;;;;;;;;;;5383629;26;19992;-58
2024/04/13 08:19:54;;;;;;;6.43;2.85;;;;;;;;;;5383446;26;20024;-57
2024/04/13 08:22:20;;;;;;;4.30;2.95;;;;;;;;;;5383498;26;20375;-58
2024/04/13 08:24:46;;;;;;;3.95;2.72;;;;;;;;;;5383549;26;20007;-57
2024/04/13 08:27:12;;;;;;;3.67;2.60;;;;;;;;;;5383379;26;20307;-58
2024/04/13 08:29:38;;;;;;;3.85;3.05;;;;;;;;;;5383463;26;20007;-57
2024/04/13 08:32:04;;;;;;;11.00;3.83;;;;;;;;;;5383342;26;20046;-58
2024/04/13 08:34:30;;;;;;;6.50;3.63;;;;;;;;;;5383558;26;20004;-57
2024/04/13 08:36:56;;;;;;;5.35;3.58;;;;;;;;;;5383058;26;20113;-57
2024/04/13 08:39:22;;;;;;;3.85;2.92;;;;;;;;;;5383115;26;20000;-58
2024/04/13 08:41:58;;;;;;;4.00;2.30;;;;;;;;;;5383062;26;20318;-58
2024/04/13 08:44:25;;;;;;;4.45;3.55;;;;;;;;;;5383638;26;20535;-58
2024/04/13 08:46:52;;;;;;;4.85;3.55;;;;;;;;;;5383189;26;20430;-57
2024/04/13 08:49:18;;;;;;;5.18;3.22;;;;;;;;;;5383173;26;20004;-58
2024/04/13 08:51:47;;;;;;;4.65;3.28;;;;;;;;;;5383273;26;20011;-58
2024/04/13 08:54:13;;;;;;;5.72;2.78;;;;;;;;;;5383100;26;20009;-58
2024/04/13 08:56:39;;;;;;;3.95;3.05;;;;;;;;;;5383497;26;20029;-57
2024/04/13 08:59:07;;;;;;;4.35;3.60;;;;;;;;;;5382608;26;20454;-58
2024/04/13 09:01:34;;;;;;;6.93;3.08;;;;;;;;;;5382497;26;20069;-57
2024/04/13 09:04:01;;;;;;;6.20;2.70;;;;;;;;;;5382773;26;20331;-58
2024/04/13 09:06:27;;;;;;;7.55;2.42;;;;;;;;;;5380426;26;19993;-58
2024/04/13 09:08:54;;;;;;;4.72;2.70;;;;;;;;;;5381941;26;20007;-58
2024/04/13 09:11:22;;;;;;;7.90;2.97;;;;;;;;;;5382305;26;20007;-58
2024/04/13 09:13:49;;;;;;;3.45;2.78;;;;;;;;;;5382586;26;20016;-58
2024/04/13 09:16:15;;;;;;;3.20;1.83;;;;;;;;;;5382422;26;19992;-58
2024/04/13 09:18:41;;;;;;;2.95;1.83;;;;;;;;;;5382505;26;20008;-58
2024/04/13 09:21:07;;;;;;;3.63;1.80;;;;;;;;;;5382502;26;20001;-58
2024/04/13 09:23:34;;;;;;;4.65;1.95;;;;;;;;;;5382247;26;20003;-57
2024/04/13 09:26:09;;;;;;;2.90;1.73;;;;;;;;;;5382382;26;20007;-58
2024/04/13 09:28:47;;;;;;;2.92;1.10;;;;;;;;;;5382373;26;20024;-58
2024/04/13 09:31:17;;;;;;;3.78;1.42;;;;;;;;;;5382176;26;20330;-58
2024/04/13 09:33:47;;;;;;;3.20;1.65;;;;;;;;;;5382684;26;19999;-58
2024/04/13 09:36:20;;;;;;;2.08;1.30;;;;;;;;;;5382450;26;20011;-58
2024/04/13 09:38:46;;;;;;;4.88;1.42;;;;;;;;;;5382404;26;20435;-58
2024/04/13 09:41:12;;;;;;;2.95;1.83;;;;;;;;;;5382851;26;19996;-58
2024/04/13 09:43:38;;;;;;;9.68;1.98;;;;;;;;;;5382024;26;20016;-59
2024/04/13 09:46:04;;;;;;;2.67;1.52;;;;;;;;;;5382202;26;20126;-59
2024/04/13 09:48:30;;;;;;;2.80;1.38;;;;;;;;;;5381872;26;20019;-59
2024/04/13 09:50:57;;;;;;;3.33;1.83;;;;;;;;;;5381808;26;20481;-59
2024/04/13 09:53:23;;;;;;;5.65;2.05;;;;;;;;;;5381885;26;20070;-59
2024/04/13 09:55:49;;;;;;;2.22;1.30;;;;;;;;;;5382043;26;20389;-59
2024/04/13 09:58:18;;;;;;;2.78;1.38;;;;;;;;;;5381802;26;20007;-59
2024/04/13 10:00:46;;;;;;;2.17;1.17;;;;;;;;;;5381866;26;20001;-59
2024/04/13 10:03:12;;;;;;;7.13;1.58;;;;;;;;;;5382404;26;20123;-59
2024/04/13 10:05:38;;;;;;;3.83;1.60;;;;;;;;;;5381638;26;20011;-59
2024/04/13 10:08:07;;;;;;;3.40;1.40;;;;;;;;;;5381185;26;20000;-58
2024/04/13 10:10:52;;;;;;;2.65;1.77;;;;;;;;;;5381524;26;20012;-59
2024/04/13 10:13:24;;;;;;;2.50;1.63;;;;;;;;;;5381513;26;20012;-59
2024/04/13 10:15:50;;;;;;;2.90;1.67;;;;;;;;;;5381291;26;20138;-58
2024/04/13 10:18:17;;;;;;;3.38;1.48;;;;;;;;;;5382399;26;20008;-58
2024/04/13 10:20:43;;;;;;;4.32;2.10;;;;;;;;;;5384796;26;20495;-58
2024/04/13 10:23:13;;;;;;;2.42;1.38;;;;;;;;;;5384866;26;20001;-58
2024/04/13 10:25:39;;;;;;;3.40;2.15;;;;;;;;;;5385116;26;20003;-58
2024/04/13 10:28:09;;;;;;;3.45;2.03;;;;;;;;;;5384542;26;19996;-59
2024/04/13 10:30:42;;;;;;;2.95;2.05;;;;;;;;;;5384917;26;20325;-58
2024/04/13 10:33:17;;;;;;;4.18;1.83;;;;;;;;;;5384537;26;19999;-58
2024/04/13 10:35:52;;;;;;;3.58;1.92;;;;;;;;;;5384648;26;19992;-58
2024/04/13 10:38:19;;;;;;;2.67;1.55;;;;;;;;;;5384686;26;20037;-58
2024/04/13 10:40:45;;;;;;;3.28;1.70;;;;;;;;;;5385187;26;20007;-58
2024/04/13 10:43:16;;;;;;;3.00;1.80;;;;;;;;;;5384467;26;19992;-58
2024/04/13 10:45:42;;;;;;;3.58;2.08;;;;;;;;;;5384707;26;20062;-58
2024/04/13 10:48:08;;;;;;;3.30;1.65;;;;;;;;;;5384648;26;19996;-58
2024/04/13 10:50:35;;;;;;;2.33;1.55;;;;;;;;;;5384519;26;20004;-58
2024/04/13 10:53:02;;;;;;;6.95;1.60;;;;;;;;;;5384406;26;19996;-58
2024/04/13 10:55:28;;;;;;;3.15;1.88;;;;;;;;;;5384663;26;20490;-58
2024/04/13 10:57:55;;;;;;;2.85;1.35;;;;;;;;;;5384297;26;20008;-58
2024/04/13 11:00:21;;;;;;;4.90;1.63;;;;;;;;;;5384645;26;20008;-58
2024/04/13 11:02:50;;;;;;;2.75;1.30;;;;;;;;;;5383761;26;20073;-58
2024/04/13 11:05:19;;;;;;;2.75;1.10;;;;;;;;;;5383685;26;20028;-57
2024/04/13 11:07:46;;;;;;;3.95;1.70;;;;;;;;;;5384459;26;19996;-58
2024/04/13 11:10:13;;;;;;;2.75;1.60;;;;;;;;;;5384698;26;20007;-59
2024/04/13 11:12:39;;;;;;;2.05;1.00;;;;;;;;;;5384561;26;20007;-59
2024/04/13 11:15:05;;;;;;;2.60;1.50;;;;;;;;;;5384577;26;20000;-59
2024/04/13 11:17:31;;;;;;;2.17;1.40;;;;;;;;;;5384569;26;20012;-59
2024/04/13 11:19:58;;;;;;;2.50;1.63;;;;;;;;;;5384505;26;20019;-59
2024/04/13 11:22:40;;;;;;;4.60;1.88;;;;;;;;;;5384259;26;20069;-59
2024/04/13 11:25:06;;;;;;;2.42;1.50;;;;;;;;;;5374960;26;20006;-60
2024/04/13 11:27:32;;;;;;;1.80;1.05;;;;;;;;;;5383728;26;20423;-60
2024/04/13 11:29:58;;;;;;;4.38;1.50;;;;;;;;;;5382854;26;20006;-59
2024/04/13 11:32:25;;;;;;;5.60;1.90;;;;;;;;;;5384193;26;20004;-59
2024/04/13 11:34:53;;;;;;;2.85;1.67;;;;;;;;;;5384838;26;20316;-59
2024/04/13 11:37:19;;;;;;;3.15;2.38;;;;;;;;;;5384046;26;19993;-59
2024/04/13 11:39:52;;;;;;;5.18;1.73;;;;;;;;;;5384107;26;20000;-59
2024/04/13 11:42:26;;;;;;;2.00;1.25;;;;;;;;;;5384348;26;20003;-59
2024/04/13 11:44:52;;;;;;;2.58;1.42;;;;;;;;;;5384471;26;20010;-59
2024/04/13 11:47:18;;;;;;;5.78;1.55;;;;;;;;;;5384232;26;20396;-59
2024/04/13 11:49:44;;;;;;;1.83;0.95;;;;;;;;;;5383947;26;20065;-59
2024/04/13 11:52:13;;;;;;;1.92;1.20;;;;;;;;;;5384055;26;19996;-59
2024/04/13 11:54:41;;;;;;;2.20;1.10;;;;;;;;;;5384310;26;20008;-60
2024/04/13 11:57:11;;;;;;;2.00;1.08;;;;;;;;;;5383880;26;19992;-60
2024/04/13 11:59:37;;;;;;;3.80;1.33;;;;;;;;;;5383670;26;19996;-60
2024/04/13 12:02:03;;;;;;;4.85;1.50;;;;;;;;;;5384051;26;20394;-60
2024/04/13 12:04:29;;;;;;;2.30;1.25;;;;;;;;;;5383297;26;20401;-60
2024/04/13 12:06:55;;;;;;;2.42;1.45;;;;;;;;;;5383369;26;20342;-60
2024/04/13 12:09:21;;;;;;;3.50;1.35;;;;;;;;;;5383744;26;20030;-60
2024/04/13 12:11:47;;;;;;;2.10;1.08;;;;;;;;;;5383805;26;20007;-60
2024/04/13 12:14:14;;;;;;;2.10;1.23;;;;;;;;;;5383502;26;20308;-60
2024/04/13 12:16:41;;;;;;;4.05;1.25;;;;;;;;;;5383984;26;20007;-60
2024/04/13 12:19:07;;;;;;;5.18;1.27;;;;;;;;;;5383712;26;20006;-60
2024/04/13 12:21:33;;;;;;;2.28;1.23;;;;;;;;;;5383356;26;20445;-60
2024/04/13 12:23:59;;;;;;;2.70;0.82;;;;;;;;;;5383843;26;19992;-60
2024/04/13 12:26:25;;;;;;;2.15;1.10;;;;;;;;;;5383537;26;20388;-60
2024/04/13 12:28:51;;;;;;;1.80;1.05;;;;;;;;;;5383586;26;20073;-60
2024/04/13 12:31:18;;;;;;;1.92;0.85;;;;;;;;;;5383550;26;20000;-60
2024/04/13 12:33:44;;;;;;;2.65;1.13;;;;;;;;;;5383089;26;20003;-60
2024/04/13 12:36:10;;;;;;;5.97;1.10;;;;;;;;;;5383136;26;19999;-60
2024/04/13 12:38:36;;;;;;;2.55;1.05;;;;;;;;;;5383307;26;20349;-60
2024/04/13 12:41:05;;;;;;;2.55;1.02;;;;;;;;;;5382827;26;20024;-60
2024/04/13 12:43:31;;;;;;;2.55;1.10;;;;;;;;;;5381419;26;20077;-60
2024/04/13 12:45:58;;;;;;;1.70;0.93;;;;;;;;;;5382686;26;20063;-60
2024/04/13 12:48:24;;;;;;;2.03;1.20;;;;;;;;;;5383117;26;20334;-60
2024/04/13 12:50:50;;;;;;;3.67;1.05;;;;;;;;;;5383056;26;19992;-59
2024/04/13 12:53:16;;;;;;;2.67;1.00;;;;;;;;;;5382798;26;20503;-59
2024/04/13 12:55:42;;;;;;;2.55;1.23;;;;;;;;;;5382636;26;20363;-60
2024/04/13 12:58:08;;;;;;;2.08;1.05;;;;;;;;;;5382505;26;20006;-60
2024/04/13 13:00:34;;;;;;;1.60;0.68;;;;;;;;;;5382667;26;20008;-60
2024/04/13 13:03:00;;;;;;;1.92;1.00;;;;;;;;;;5383127;26;20470;-60
2024/04/13 13:05:25;;;;;;;2.10;0.98;;;;;;;;;;5382925;26;20460;-60
2024/04/13 13:07:51;;;;;;;1.58;0.85;;;;;;;;;;5382852;26;19993;-60
2024/04/13 13:10:17;;;;;;;0.90;0.50;;;;;;;;;;5383226;26;20007;-60
2024/04/13 13:12:44;;;;;;;1.10;0.60;;;;;;;;;;5382860;26;20004;-60
2024/04/13 13:15:10;;;;;;;3.35;0.63;;;;;;;;;;5382583;26;20093;-60
2024/04/13 13:17:36;;;;;;;1.80;0.80;;;;;;;;;;5382612;26;20331;-60
2024/04/13 13:20:03;;;;;;;2.05;1.10;;;;;;;;;;5383136;26;20004;-60
2024/04/13 13:22:29;;;;;;;0.88;0.40;;;;;;;;;;5381297;26;20314;-60
2024/04/13 13:24:55;;;;;;;1.25;0.52;;;;;;;;;;5382226;26;19996;-59
2024/04/13 13:27:21;;;;;;;1.95;0.90;;;;;;;;;;5382385;26;19996;-59
2024/04/13 13:29:46;;;;;;;1.55;0.80;;;;;;;;;;5382359;26;20000;-60
2024/04/13 13:32:12;;;;;;;3.13;0.47;;;;;;;;;;5382183;26;20007;-60
2024/04/13 13:34:38;;;;;;;1.88;0.65;;;;;;;;;;5381706;26;20428;-59
2024/04/13 13:37:06;;;;;;;1.42;0.63;;;;;;;;;;5382052;26;20003;-59
2024/04/13 13:39:32;;;;;;;1.73;0.80;;;;;;;;;;5381702;26;19996;-59
2024/04/13 13:41:58;;;;;;;1.98;0.73;;;;;;;;;;5382297;26;20066;-59
2024/04/13 13:44:24;;;;;;;1.02;0.80;;;;;;;;;;5381564;26;20000;-59
2024/04/13 13:46:50;;;;;;;1.27;0.63;;;;;;;;;;5382142;26;19992;-59
2024/04/13 13:49:16;;;;;;;3.58;0.90;;;;;;;;;;5382873;26;20003;-59
2024/04/13 13:51:42;;;;;;;2.05;0.70;;;;;;;;;;5382236;26;20023;-59
2024/04/13 13:54:09;;;;;;;1.90;0.95;;;;;;;;;;5384681;26;20000;-59
2024/04/13 13:56:35;;;;;;;2.90;1.02;;;;;;;;;;5385445;26;20334;-59
2024/04/13 13:59:02;;;;;;;1.45;0.80;;;;;;;;;;5386142;26;20000;-59
2024/04/13 14:01:28;;;;;;;1.50;0.75;;;;;;;;;;5385079;26;20434;-59
2024/04/13 14:03:54;;;;;;;1.58;0.70;;;;;;;;;;5385277;26;20007;-59
2024/04/13 14:06:20;;;;;;;2.13;0.98;;;;;;;;;;5385772;26;19996;-59
2024/04/13 14:08:46;;;;;;;1.90;0.80;;;;;;;;;;5385556;26;20345;-59
2024/04/13 14:11:12;;;;;;;3.88;0.75;;;;;;;;;;5385785;26;20430;-59
2024/04/13 14:13:38;;;;;;;1.65;0.80;;;;;;;;;;5385255;26;20011;-59
2024/04/13 14:16:04;;;;;;;1.83;1.23;;;;;;;;;;5385289;26;20315;-59
2024/04/13 14:18:30;;;;;;;1.60;0.70;;;;;;;;;;5385668;26;20347;-59
2024/04/13 14:20:56;;;;;;;2.40;1.17;;;;;;;;;;5385095;26;19992;-59
2024/04/13 14:23:23;;;;;;;2.10;1.10;;;;;;;;;;5385250;26;19996;-60
2024/04/13 14:25:49;;;;;;;2.85;0.75;;;;;;;;;;5385481;26;20306;-60
2024/04/13 14:28:15;;;;;;;3.65;1.05;;;;;;;;;;5385388;26;20010;-58
2024/04/13 14:30:41;;;;;;;3.88;1.08;;;;;;;;;;5385364;26;20008;-58
2024/04/13 14:33:10;;;;;;;4.15;1.00;;;;;;;;;;5385309;26;19997;-58
2024/04/13 14:35:39;;;;;;;2.47;1.05;;;;;;;;;;5385262;26;19996;-59
2024/04/13 14:38:07;;;;;;;2.10;0.93;;;;;;;;;;5385027;26;20360;-59
2024/04/13 14:40:33;;;;;;;1.60;0.75;;;;;;;;;;5384999;26;20032;-58